Terminal Aerodrome Forecast
Issued by NWS Dallas/Fort Worth, TX

Home | Current Version | Previous Version | Text Only | Print | Product List | Glossary On
Versions: 1 2 3 4 5 6 7 8 9 10 11 12 13 14 15 16 17 18 19 20 21 22 23 24 25 26 27
972
FTUS44 KFWD 212331
TAFDFW
TAF
KDFW 212331Z 2200/2306 17016KT P6SM SCT050 BKN250
     FM220500 24015KT 5SM TSRA BKN025CB OVC040
      TEMPO 2205/2207 31030G40KT 1SM +TSRA BKN015CB
     FM220800 34022KT P6SM SCT020 BKN100
     FM221900 35020KT P6SM FEW250
     FM230000 35012KT P6SM SKC=

USA.gov is the U.S. government's official web portal to all federal, state and local government web resources and services.